createdAt,value
2019-03-12T00:04:59.669Z,99.80
2019-03-12T00:07:29.966Z,99.80
2019-03-12T00:10:01.283Z,99.70
2019-03-12T00:12:32.700Z,99.70
2019-03-12T00:15:03.001Z,99.80
2019-03-12T00:17:41.172Z,99.60
2019-03-12T00:20:13.084Z,99.60
2019-03-12T00:22:43.404Z,99.50
2019-03-12T00:25:17.279Z,99.40
2019-03-12T00:27:47.597Z,99.70
2019-03-12T00:30:27.024Z,99.70
2019-03-12T00:33:04.394Z,99.80
2019-03-12T00:35:34.707Z,99.90
2019-03-12T00:38:05.033Z,99.90
2019-03-12T00:40:35.375Z,99.70
2019-03-12T00:43:05.672Z,99.70
2019-03-12T00:45:42.640Z,99.70
2019-03-12T00:48:14.352Z,99.70
2019-03-12T00:50:44.735Z,99.60
2019-03-12T00:53:21.804Z,99.60
2019-03-12T00:55:52.114Z,99.50
2019-03-12T00:58:22.428Z,99.40
2019-03-12T01:00:52.732Z,99.30
2019-03-12T01:03:23.030Z,99.10
2019-03-12T01:05:54.903Z,99.10
2019-03-12T01:08:25.276Z,99.10
2019-03-12T01:10:55.569Z,99.10
2019-03-12T01:13:25.872Z,99.30
2019-03-12T01:15:56.479Z,99.50
2019-03-12T01:18:27.897Z,99.70
2019-03-12T01:20:58.269Z,99.70
2019-03-12T01:23:28.530Z,99.70
2019-03-12T01:25:58.849Z,99.90
2019-03-12T01:28:29.207Z,99.90
2019-03-12T01:30:59.575Z,99.90
2019-03-12T01:33:29.871Z,99.90
2019-03-12T01:36:05.722Z,99.90
2019-03-12T01:38:36.039Z,99.90
2019-03-12T01:41:28.960Z,99.90
2019-03-12T01:43:59.377Z,99.90
2019-03-12T01:46:29.632Z,99.90
2019-03-12T01:49:00.019Z,99.90
2019-03-12T01:51:31.330Z,99.90
2019-03-12T01:54:01.823Z,99.90
2019-03-12T01:56:32.091Z,99.90
2019-03-12T01:59:02.432Z,99.90
2019-03-12T02:01:32.665Z,99.90
2019-03-12T02:04:03.043Z,99.90
2019-03-12T02:06:36.395Z,99.90
2019-03-12T02:09:08.563Z,99.90
2019-03-12T02:11:39.038Z,99.90
2019-03-12T02:14:30.548Z,99.90
2019-03-12T02:17:10.752Z,99.90
2019-03-12T02:19:41.058Z,99.90
2019-03-12T02:22:11.357Z,99.90
2019-03-12T02:24:52.167Z,99.90
2019-03-12T02:27:13.639Z,99.90
2019-03-12T02:29:43.925Z,99.90
2019-03-12T02:32:22.966Z,99.90
2019-03-12T02:34:53.347Z,99.90
2019-03-12T02:37:23.785Z,99.90
2019-03-12T02:39:55.563Z,99.90
2019-03-12T02:42:25.869Z,99.90
2019-03-12T02:44:56.302Z,99.90
2019-03-12T02:47:28.156Z,99.90
2019-03-12T02:49:58.453Z,99.90
2019-03-12T02:52:30.706Z,99.90
2019-03-12T02:55:01.027Z,99.90
2019-03-12T02:57:34.920Z,99.90
2019-03-12T03:00:16.183Z,99.90
2019-03-12T03:02:48.250Z,99.90
2019-03-12T03:05:18.881Z,99.90
2019-03-12T03:08:03.206Z,99.90
2019-03-12T03:13:02.040Z,99.90
2019-03-12T03:15:37.472Z,99.90
2019-03-12T03:18:07.833Z,99.90
2019-03-12T03:20:38.145Z,99.90
2019-03-12T03:23:08.484Z,99.90
2019-03-12T03:25:38.861Z,99.90
2019-03-12T03:28:09.275Z,99.90
2019-03-12T03:30:39.621Z,99.90
2019-03-12T03:33:11.623Z,99.90
2019-03-12T03:35:41.939Z,99.90
2019-03-12T03:38:12.233Z,99.90
2019-03-12T03:40:42.553Z,99.90
2019-03-12T03:43:18.769Z,99.90
2019-03-12T03:45:49.088Z,99.90
2019-03-12T03:48:20.841Z,99.90
2019-03-12T03:50:51.180Z,99.90
2019-03-12T03:53:24.551Z,99.90
2019-03-12T03:55:54.861Z,99.90
2019-03-12T03:58:25.202Z,99.90
2019-03-12T04:00:55.535Z,99.90
2019-03-12T04:03:25.903Z,99.90
2019-03-12T04:05:56.206Z,99.90
2019-03-12T04:08:26.502Z,99.90
2019-03-12T04:10:56.837Z,99.90
2019-03-12T04:13:27.151Z,99.90
2019-03-12T04:15:57.490Z,99.90
2019-03-12T04:18:33.044Z,99.90
2019-03-12T04:20:59.901Z,99.90
2019-03-12T04:23:30.265Z,99.90
2019-03-12T04:26:00.623Z,99.90
2019-03-12T04:28:31.060Z,99.90
2019-03-12T04:31:04.283Z,99.80
2019-03-12T04:34:01.355Z,99.90
2019-03-12T04:36:32.587Z,99.90
2019-03-12T04:39:03.796Z,99.90
2019-03-12T04:41:44.926Z,99.90
2019-03-12T04:44:15.197Z,99.90
2019-03-12T04:46:45.583Z,99.90
2019-03-12T04:49:15.851Z,99.90
2019-03-12T04:51:46.418Z,99.80
2019-03-12T04:54:16.693Z,99.90
2019-03-12T04:56:48.484Z,99.90
2019-03-12T04:59:16.891Z,99.90
2019-03-12T05:02:10.351Z,99.90
2019-03-12T05:04:39.132Z,99.90
2019-03-12T05:07:18.494Z,99.90
2019-03-12T05:10:02.093Z,99.90
2019-03-12T05:12:43.777Z,99.90
2019-03-12T05:18:06.319Z,99.90
2019-03-12T05:20:36.713Z,99.90
2019-03-12T05:23:07.002Z,99.90
2019-03-12T05:25:37.357Z,99.90
2019-03-12T05:28:07.691Z,99.90
2019-03-12T05:30:41.234Z,99.90
2019-03-12T05:33:19.488Z,99.90
2019-03-12T05:35:49.778Z,99.70
2019-03-12T05:38:20.062Z,99.70
2019-03-12T05:40:50.510Z,99.60
2019-03-12T05:43:21.199Z,99.60
2019-03-12T05:45:51.569Z,99.60
2019-03-12T05:48:21.875Z,99.50
2019-03-12T05:50:52.154Z,99.40
2019-03-12T05:53:25.385Z,99.30
2019-03-12T05:55:55.695Z,99.20
2019-03-12T05:58:25.957Z,99.10
2019-03-12T06:00:56.323Z,99.20
2019-03-12T06:03:26.559Z,99.10
2019-03-12T06:05:56.823Z,98.90
2019-03-12T06:08:27.120Z,98.90
2019-03-12T06:10:57.409Z,98.80
2019-03-12T06:13:27.632Z,98.50
2019-03-12T06:15:58.119Z,98.30
2019-03-12T06:18:28.436Z,98.50
2019-03-12T06:20:58.696Z,98.40
2019-03-12T06:23:29.002Z,98.60
2019-03-12T06:25:59.228Z,98.60
2019-03-12T06:28:31.204Z,98.60
2019-03-12T06:31:15.130Z,98.50
2019-03-12T06:33:55.584Z,98.40
2019-03-12T06:36:27.231Z,98.40
2019-03-12T06:39:11.739Z,98.10
2019-03-12T06:41:49.397Z,97.30
2019-03-12T06:44:33.137Z,96.90
2019-03-12T06:47:13.959Z,97.10
2019-03-12T06:49:45.864Z,96.70
2019-03-12T06:52:17.697Z,95.90
2019-03-12T06:54:52.596Z,96.00
2019-03-12T06:57:24.451Z,95.30
2019-03-12T06:59:56.338Z,95.40
2019-03-12T07:02:28.348Z,95.50
2019-03-12T07:05:16.459Z,95.60
2019-03-12T07:07:51.030Z,95.90
2019-03-12T07:10:25.776Z,96.10
2019-03-12T07:13:03.727Z,95.50
2019-03-12T07:15:36.570Z,95.00
2019-03-12T07:18:08.420Z,94.70
2019-03-12T07:20:40.332Z,94.90
2019-03-12T07:23:21.152Z,95.00
2019-03-12T07:26:11.207Z,95.10
2019-03-12T07:28:50.562Z,95.00
2019-03-12T07:31:38.434Z,95.30
2019-03-12T07:34:10.295Z,95.20
2019-03-12T07:36:48.199Z,94.70
2019-03-12T07:39:35.204Z,94.40
2019-03-12T07:42:07.250Z,94.60
2019-03-12T07:44:57.034Z,94.50
2019-03-12T07:47:35.640Z,95.00
2019-03-12T07:50:03.667Z,94.70
2019-03-12T07:52:51.559Z,95.10
2019-03-12T07:55:30.078Z,95.10
2019-03-12T07:58:11.304Z,94.70
2019-03-12T08:00:45.906Z,94.30
2019-03-12T08:03:20.775Z,94.20
2019-03-12T08:05:52.812Z,93.70
2019-03-12T08:08:31.597Z,93.60
2019-03-12T08:11:03.485Z,93.80
2019-03-12T08:13:53.694Z,94.20
2019-03-12T08:16:25.724Z,94.70
2019-03-12T08:18:57.680Z,93.90
2019-03-12T08:21:38.483Z,93.60
2019-03-12T08:24:13.979Z,93.70
2019-03-12T08:26:55.066Z,93.80
2019-03-12T08:29:33.028Z,94.00
2019-03-12T08:32:23.659Z,93.80
2019-03-12T08:35:03.510Z,93.90
2019-03-12T08:37:44.173Z,93.20
2019-03-12T08:40:24.925Z,93.40
2019-03-12T08:43:06.476Z,92.90
2019-03-12T08:45:41.276Z,91.10
2019-03-12T08:48:17.029Z,90.90
2019-03-12T08:50:51.895Z,90.80
2019-03-12T08:53:23.808Z,91.10
2019-03-12T08:55:56.359Z,91.80
2019-03-12T08:58:46.395Z,91.90
2019-03-12T09:01:34.015Z,92.00
2019-03-12T09:04:15.223Z,91.30
2019-03-12T09:06:49.651Z,91.20
2019-03-12T09:09:33.667Z,91.20
2019-03-12T09:12:11.361Z,91.20
2019-03-12T09:14:52.765Z,90.20
2019-03-12T09:17:42.956Z,89.20
2019-03-12T09:20:24.091Z,90.70
2019-03-12T09:23:12.363Z,90.50
2019-03-12T09:25:53.557Z,89.90
2019-03-12T09:28:25.439Z,90.00
2019-03-12T09:30:57.429Z,89.60
2019-03-12T09:33:35.509Z,84.50
2019-03-12T09:36:19.499Z,84.90
2019-03-12T09:39:03.550Z,84.80
2019-03-12T09:41:51.909Z,83.40
2019-03-12T09:44:40.080Z,83.80
2019-03-12T09:47:11.922Z,84.70
2019-03-12T09:49:43.806Z,82.10
2019-03-12T09:52:18.669Z,80.70
2019-03-12T09:54:50.589Z,82.40
2019-03-12T09:57:22.414Z,82.70
2019-03-12T09:59:56.822Z,79.30
2019-03-12T10:02:45.181Z,77.50
2019-03-12T10:05:19.740Z,80.60
2019-03-12T10:07:51.546Z,80.00
2019-03-12T10:10:38.708Z,79.30
2019-03-12T10:13:16.233Z,80.00
2019-03-12T10:15:56.885Z,79.70
2019-03-12T10:18:34.540Z,80.00
2019-03-12T10:21:06.451Z,79.90
2019-03-12T10:23:44.777Z,81.60
2019-03-12T10:26:16.688Z,80.40
2019-03-12T10:29:04.258Z,79.20
2019-03-12T10:31:36.187Z,79.60
2019-03-12T10:34:29.815Z,79.30
2019-03-12T10:37:11.226Z,78.80
2019-03-12T10:39:58.553Z,79.30
2019-03-12T10:42:33.263Z,80.10
2019-03-12T10:45:23.567Z,79.10
2019-03-12T10:47:55.482Z,80.90
2019-03-12T10:50:26.012Z,81.70
2019-03-12T10:52:56.333Z,81.40
2019-03-12T10:55:26.625Z,81.00
2019-03-12T10:57:56.987Z,81.90
2019-03-12T11:00:27.291Z,83.10
2019-03-12T11:02:57.664Z,81.70
2019-03-12T11:05:29.556Z,82.80
2019-03-12T11:07:59.959Z,82.80
2019-03-12T11:10:30.438Z,82.30
2019-03-12T11:13:01.807Z,84.30
2019-03-12T11:15:33.114Z,83.40
2019-03-12T11:18:03.401Z,81.80
2019-03-12T11:20:33.687Z,82.10
2019-03-12T11:23:04.457Z,82.10
2019-03-12T11:25:34.801Z,82.30
2019-03-12T11:28:04.989Z,81.60
2019-03-12T11:30:35.311Z,81.30
2019-03-12T11:33:06.427Z,81.70
2019-03-12T11:35:39.508Z,80.90
2019-03-12T11:38:09.940Z,82.50
2019-03-12T11:40:40.190Z,83.40
2019-03-12T11:43:12.192Z,81.70
2019-03-12T11:45:42.502Z,81.40
2019-03-12T11:48:12.741Z,81.00
2019-03-12T11:50:43.059Z,78.60
2019-03-12T11:53:13.417Z,80.90
2019-03-12T11:55:44.210Z,80.50
2019-03-12T11:58:14.597Z,76.30
2019-03-12T12:00:48.066Z,75.90
2019-03-12T12:03:19.452Z,75.40
2019-03-12T12:05:49.707Z,75.90
2019-03-12T12:08:19.928Z,77.90
2019-03-12T12:10:50.267Z,75.20
2019-03-12T12:13:20.571Z,75.30
2019-03-12T12:15:52.727Z,72.40
2019-03-12T12:18:23.187Z,67.80
2019-03-12T12:20:53.403Z,67.10
2019-03-12T12:23:24.555Z,65.10
2019-03-12T12:25:56.703Z,66.00
2019-03-12T12:28:26.998Z,64.80
2019-03-12T12:30:57.276Z,64.20
2019-03-12T12:33:28.028Z,65.70
2019-03-12T12:35:58.239Z,65.20
2019-03-12T12:38:28.542Z,63.50
2019-03-12T12:40:58.829Z,63.50
2019-03-12T12:43:30.207Z,64.00
2019-03-12T12:46:00.461Z,64.30
2019-03-12T12:48:31.424Z,65.00
2019-03-12T12:51:03.428Z,60.90
2019-03-12T12:53:33.804Z,63.00
2019-03-12T12:56:04.250Z,60.90
2019-03-12T12:58:34.695Z,61.10
2019-03-12T13:01:04.986Z,60.00
2019-03-12T13:03:35.252Z,61.90
2019-03-12T13:06:06.666Z,61.90
2019-03-12T13:08:37.004Z,63.10
2019-03-12T13:11:07.225Z,64.30
2019-03-12T13:13:37.484Z,64.60
2019-03-12T13:16:09.235Z,65.60
2019-03-12T13:18:39.787Z,66.10
2019-03-12T13:21:10.035Z,64.70
2019-03-12T13:23:40.609Z,66.30
2019-03-12T13:26:10.881Z,66.60
2019-03-12T13:28:41.155Z,66.80
2019-03-12T13:31:11.539Z,66.50
2019-03-12T13:33:41.889Z,67.30
2019-03-12T13:36:13.791Z,68.10
2019-03-12T13:38:46.503Z,69.00
2019-03-12T13:41:16.453Z,68.20
2019-03-12T13:43:46.956Z,68.70
2019-03-12T13:46:17.224Z,67.80
2019-03-12T13:48:48.024Z,67.20
2019-03-12T13:51:19.493Z,66.30
2019-03-12T13:53:51.132Z,64.90
2019-03-12T13:56:21.516Z,62.30
2019-03-12T13:58:51.866Z,60.50
2019-03-12T14:01:22.108Z,59.50
2019-03-12T14:03:52.606Z,57.30
2019-03-12T14:06:22.896Z,56.60
2019-03-12T14:08:53.243Z,58.00
2019-03-12T14:11:23.612Z,59.50
2019-03-12T14:13:54.982Z,60.10
2019-03-12T14:16:25.188Z,60.70
2019-03-12T14:18:55.544Z,58.80
2019-03-12T14:21:25.842Z,60.60
2019-03-12T14:24:01.055Z,61.20
2019-03-12T14:26:32.545Z,60.00
2019-03-12T14:29:02.861Z,59.80
2019-03-12T14:31:33.413Z,59.20
2019-03-12T14:34:03.674Z,58.40
2019-03-12T14:36:34.181Z,59.40
2019-03-12T14:39:06.486Z,56.60
2019-03-12T14:41:37.523Z,55.90
2019-03-12T14:44:10.461Z,56.30
2019-03-12T14:46:40.720Z,57.50
2019-03-12T14:49:11.034Z,58.20
2019-03-12T14:51:44.235Z,59.00
2019-03-12T14:54:16.394Z,58.80
2019-03-12T14:56:46.713Z,56.80
2019-03-12T14:59:17.024Z,57.10
2019-03-12T15:01:47.331Z,56.60
2019-03-12T15:04:17.627Z,55.70
2019-03-12T15:06:47.947Z,55.50
2019-03-12T15:09:18.268Z,56.70
2019-03-12T15:11:48.783Z,56.00
2019-03-12T15:14:19.089Z,57.00
2019-03-12T15:16:49.355Z,55.70
2019-03-12T15:19:19.677Z,55.90
2019-03-12T15:21:49.895Z,56.40
2019-03-12T15:24:20.215Z,57.00
2019-03-12T15:26:50.804Z,55.80
2019-03-12T15:29:21.117Z,55.00
2019-03-12T15:32:03.108Z,56.10
2019-03-12T15:34:23.359Z,56.80
2019-03-12T15:37:08.532Z,56.50
2019-03-12T15:39:38.918Z,55.50
2019-03-12T15:42:09.224Z,55.10
2019-03-12T15:44:39.685Z,55.40
2019-03-12T15:47:09.936Z,55.50
2019-03-12T15:49:42.944Z,54.80
2019-03-12T15:52:12.349Z,55.00
2019-03-12T15:54:42.650Z,54.90
2019-03-12T15:57:12.919Z,55.00
2019-03-12T15:59:43.186Z,55.30
2019-03-12T16:02:13.445Z,55.50
2019-03-12T16:04:43.747Z,55.50
2019-03-12T16:07:14.062Z,55.40
2019-03-12T16:09:44.365Z,55.60
2019-03-12T16:14:44.903Z,55.20
2019-03-12T16:17:15.523Z,54.90
2019-03-12T16:19:47.645Z,55.00
2019-03-12T16:22:17.975Z,55.60
2019-03-12T16:24:48.634Z,56.00
2019-03-12T16:27:19.070Z,56.40
2019-03-12T16:29:49.525Z,56.60
2019-03-12T16:32:20.437Z,57.00
2019-03-12T16:34:52.325Z,57.60
2019-03-12T16:37:27.229Z,57.80
2019-03-12T16:39:57.524Z,57.50
2019-03-12T16:42:34.940Z,58.30
2019-03-12T16:45:00.818Z,59.00
2019-03-12T16:47:31.154Z,59.10
2019-03-12T16:50:01.567Z,59.60
2019-03-12T16:52:32.373Z,59.80
2019-03-12T16:55:02.726Z,60.00
2019-03-12T16:57:32.993Z,60.00
2019-03-12T17:00:08.199Z,59.80
2019-03-12T17:02:36.824Z,59.90
2019-03-12T17:05:09.469Z,59.80
2019-03-12T17:07:39.856Z,60.10
2019-03-12T17:10:17.886Z,60.90
2019-03-12T17:12:48.550Z,61.30
2019-03-12T17:15:31.399Z,61.70
2019-03-12T17:18:03.169Z,62.30
2019-03-12T17:20:34.599Z,63.20
2019-03-12T17:23:04.921Z,63.60
2019-03-12T17:25:35.275Z,64.30
2019-03-12T17:28:05.940Z,64.00
2019-03-12T17:30:36.455Z,64.30
2019-03-12T17:33:07.034Z,64.40
2019-03-12T17:35:39.118Z,64.80
2019-03-12T17:38:09.431Z,65.40
2019-03-12T17:40:39.788Z,66.10
2019-03-12T17:43:10.236Z,66.50
2019-03-12T17:45:40.666Z,66.70
2019-03-12T17:48:11.266Z,67.40
2019-03-12T17:50:41.606Z,68.20
2019-03-12T17:53:11.854Z,68.90
2019-03-12T17:55:42.211Z,69.70
2019-03-12T17:58:12.436Z,70.60
2019-03-12T18:00:44.237Z,71.50
2019-03-12T18:03:14.542Z,72.00
2019-03-12T18:05:44.856Z,72.60
2019-03-12T18:08:15.095Z,73.40
2019-03-12T18:10:46.582Z,74.10
2019-03-12T18:13:16.945Z,74.80
2019-03-12T18:15:47.415Z,75.20
2019-03-12T18:18:17.819Z,75.60
2019-03-12T18:20:50.345Z,76.10
2019-03-12T18:23:30.806Z,76.40
2019-03-12T18:26:02.925Z,76.80
2019-03-12T18:28:33.233Z,77.00
2019-03-12T18:31:05.609Z,77.40
2019-03-12T18:33:35.909Z,77.40
2019-03-12T18:36:07.224Z,77.60
2019-03-12T18:38:37.407Z,77.60
2019-03-12T18:41:10.593Z,77.60
2019-03-12T18:43:41.115Z,78.00
2019-03-12T18:46:12.394Z,78.20
2019-03-12T18:48:44.659Z,78.30
2019-03-12T18:51:20.389Z,78.80
2019-03-12T18:53:53.092Z,79.50
2019-03-12T18:56:23.404Z,79.10
2019-03-12T18:58:53.710Z,79.20
2019-03-12T19:01:24.611Z,79.70
2019-03-12T19:03:55.011Z,79.90
2019-03-12T19:06:25.317Z,80.20
2019-03-12T19:08:55.810Z,80.10
2019-03-12T19:11:26.288Z,80.30
2019-03-12T19:13:56.661Z,81.10
2019-03-12T19:16:26.856Z,80.30
2019-03-12T19:18:58.392Z,80.30
2019-03-12T19:21:28.658Z,80.80
2019-03-12T19:23:59.112Z,80.30
2019-03-12T19:26:29.333Z,80.40
2019-03-12T19:29:00.057Z,80.50
2019-03-12T19:31:31.964Z,80.40
2019-03-12T19:34:04.098Z,80.20
2019-03-12T19:36:34.346Z,80.20
2019-03-12T19:39:07.178Z,80.50
2019-03-12T19:41:39.050Z,80.30
2019-03-12T19:44:09.572Z,80.30
2019-03-12T19:46:39.897Z,80.10
2019-03-12T19:49:10.305Z,80.10
2019-03-12T19:51:40.667Z,80.10
2019-03-12T19:54:11.054Z,79.80
2019-03-12T19:56:41.349Z,80.10
2019-03-12T19:59:12.091Z,80.10
2019-03-12T20:01:43.360Z,80.00
2019-03-12T20:04:13.717Z,80.00
2019-03-12T20:06:44.134Z,79.90
2019-03-12T20:09:17.457Z,80.10
2019-03-12T20:12:08.815Z,80.30
2019-03-12T20:15:03.489Z,80.70
2019-03-12T20:18:00.685Z,80.80
2019-03-12T20:20:42.754Z,80.60
2019-03-12T20:23:21.855Z,80.50
2019-03-12T20:26:12.428Z,80.20
2019-03-12T20:29:04.026Z,80.00
2019-03-12T20:31:58.543Z,79.60
2019-03-12T20:34:52.799Z,79.50
2019-03-12T20:37:40.541Z,79.50
2019-03-12T20:40:43.820Z,79.40
2019-03-12T20:43:51.925Z,79.20
2019-03-12T20:46:49.076Z,79.20
2019-03-12T20:49:44.790Z,79.50
2019-03-12T20:52:36.156Z,79.80
2019-03-12T20:55:45.511Z,79.90
2019-03-12T20:58:51.723Z,80.10
2019-03-12T21:01:44.333Z,80.10
2019-03-12T21:04:34.214Z,80.20
2019-03-12T21:07:43.349Z,80.70
2019-03-12T21:10:43.752Z,81.80
2019-03-12T21:13:33.469Z,81.50
2019-03-12T21:16:38.469Z,81.80
2019-03-12T21:19:38.950Z,81.80
2019-03-12T21:22:27.197Z,82.20
2019-03-12T21:25:27.931Z,82.40
2019-03-12T21:28:13.125Z,82.70
2019-03-12T21:30:44.215Z,83.00
2019-03-12T21:33:15.532Z,83.00
2019-03-12T21:35:47.000Z,83.00
2019-03-12T21:38:17.298Z,83.00
2019-03-12T21:40:47.604Z,83.00
2019-03-12T21:43:17.957Z,82.80
2019-03-12T21:45:48.271Z,82.80
2019-03-12T21:48:18.554Z,83.00
2019-03-12T21:50:48.860Z,83.20
2019-03-12T21:53:19.186Z,83.20
2019-03-12T21:55:49.458Z,83.30
2019-03-12T21:58:19.750Z,83.20
2019-03-12T22:00:49.268Z,83.20
2019-03-12T22:03:19.692Z,83.20
2019-03-12T22:05:53.210Z,83.10
2019-03-12T22:08:25.402Z,83.00
2019-03-12T22:10:55.926Z,83.10
2019-03-12T22:13:26.233Z,83.10
2019-03-12T22:15:56.645Z,83.20
2019-03-12T22:18:26.970Z,83.50
2019-03-12T22:20:57.225Z,83.40
2019-03-12T22:23:29.499Z,83.80
2019-03-12T22:25:59.873Z,83.80
2019-03-12T22:28:30.212Z,83.90
2019-03-12T22:31:00.555Z,83.80
2019-03-12T22:33:30.877Z,83.50
2019-03-12T22:36:01.143Z,83.30
2019-03-12T22:38:31.439Z,83.00
2019-03-12T22:41:03.811Z,82.80
2019-03-12T22:43:35.004Z,82.90
2019-03-12T22:46:05.585Z,82.70
2019-03-12T22:48:35.954Z,82.60
2019-03-12T22:51:06.259Z,82.70
2019-03-12T22:53:36.646Z,82.70
2019-03-12T22:56:06.925Z,82.50
2019-03-12T22:58:37.337Z,82.50
2019-03-12T23:01:25.533Z,82.60
2019-03-12T23:12:19.582Z,81.30
2019-03-12T23:14:57.399Z,79.00
2019-03-12T23:17:29.295Z,77.60
2019-03-12T23:19:59.732Z,76.70
2019-03-12T23:22:30.099Z,76.60
2019-03-12T23:25:00.411Z,75.90
2019-03-12T23:27:30.841Z,75.60
2019-03-12T23:30:01.181Z,75.70
2019-03-12T23:32:33.026Z,75.30
2019-03-12T23:35:03.862Z,75.00
2019-03-12T23:37:43.299Z,75.10
2019-03-12T23:40:15.367Z,74.90
2019-03-12T23:42:45.714Z,74.60
2019-03-12T23:45:16.984Z,74.40
2019-03-12T23:47:50.102Z,74.20
2019-03-12T23:50:19.742Z,74.00
2019-03-12T23:52:50.096Z,74.10
2019-03-12T23:55:20.803Z,73.50
2019-03-12T23:57:54.410Z,73.60
